Time;durP1;ratioP1;P1;durP2;ratioP2;P2;SDS_P1;SDS_P2;PMS_P1;PMS_P2;Temp;Humidity;BMP_temperature;BMP_pressure;BME280_temperature;BME280_humidity;BME280_pressure;Samples;Min_cycle;Max_cycle;Signal;HPM_P1;HPM_P2
2023/09/01 00:01:40;;;;;;;5.47;3.40;;;;;;;;;;767423;181;917627;-57
2023/09/01 00:04:06;;;;;;;4.37;2.93;;;;;;;;;;769272;177;901258;-63
2023/09/01 00:06:31;;;;;;;6.33;3.30;;;;;;;;;;771119;178;918287;-62
2023/09/01 00:08:57;;;;;;;5.10;3.20;;;;;;;;;;781418;178;917922;-62
2023/09/01 00:11:23;;;;;;;6.20;2.90;;;;;;;;;;774555;181;921435;-62
2023/09/01 00:13:49;;;;;;;4.30;2.87;;;;;;;;;;771610;181;917128;-63
2023/09/01 00:16:15;;;;;;;5.12;3.35;;;;;;;;;;772473;181;919678;-63
2023/09/01 00:18:41;;;;;;;6.20;3.80;;;;;;;;;;767716;181;918828;-62
2023/09/01 00:21:06;;;;;;;5.87;3.55;;;;;;;;;;774484;177;893265;-58
2023/09/01 00:23:32;;;;;;;4.00;2.80;;;;;;;;;;776382;180;919060;-57
2023/09/01 00:25:59;;;;;;;7.43;3.20;;;;;;;;;;765250;180;919377;-62
2023/09/01 00:28:24;;;;;;;5.53;3.40;;;;;;;;;;769073;181;919289;-62
2023/09/01 00:30:51;;;;;;;6.93;3.60;;;;;;;;;;772407;180;917024;-62
2023/09/01 00:33:16;;;;;;;6.57;3.20;;;;;;;;;;773419;181;936512;-62
2023/09/01 00:35:42;;;;;;;6.37;2.87;;;;;;;;;;776613;180;919531;-62
2023/09/01 00:38:08;;;;;;;5.32;3.35;;;;;;;;;;773562;180;919625;-58
2023/09/01 00:40:34;;;;;;;6.57;3.77;;;;;;;;;;775044;181;919963;-58
2023/09/01 00:43:00;;;;;;;4.50;2.90;;;;;;;;;;768843;180;919977;-58
2023/09/01 00:45:26;;;;;;;7.40;3.50;;;;;;;;;;769177;180;919132;-62
2023/09/01 00:47:51;;;;;;;4.50;3.20;;;;;;;;;;780416;180;920647;-58
2023/09/01 00:50:17;;;;;;;4.80;3.70;;;;;;;;;;774332;181;918410;-58
2023/09/01 00:52:43;;;;;;;4.13;2.77;;;;;;;;;;773403;180;919460;-58
2023/09/01 00:55:09;;;;;;;4.13;2.90;;;;;;;;;;773760;177;918095;-58
2023/09/01 00:57:35;;;;;;;5.67;3.40;;;;;;;;;;772764;182;818182;-57
2023/09/01 01:00:01;;;;;;;4.47;2.97;;;;;;;;;;771200;181;916945;-58
2023/09/01 01:02:27;;;;;;;4.60;3.57;;;;;;;;;;774932;180;917994;-59
2023/09/01 01:04:52;;;;;;;5.43;3.37;;;;;;;;;;776414;180;817648;-62
2023/09/01 01:07:20;;;;;;;5.33;3.60;;;;;;;;;;770181;180;919837;-61
2023/09/01 01:09:49;;;;;;;9.18;3.60;;;;;;;;;;769644;180;917649;-62
2023/09/01 01:12:17;;;;;;;4.27;3.30;;;;;;;;;;777654;181;918132;-58
2023/09/01 01:14:43;;;;;;;4.53;2.90;;;;;;;;;;773430;181;921407;-58
2023/09/01 01:17:09;;;;;;;14.35;3.22;;;;;;;;;;772269;180;919132;-58
2023/09/01 01:19:51;;;;;;;6.37;3.13;;;;;;;;;;776703;178;918628;-62
2023/09/01 01:22:33;;;;;;;4.40;3.17;;;;;;;;;;768950;181;919148;-59
2023/09/01 01:24:59;;;;;;;9.80;3.10;;;;;;;;;;760735;181;919317;-62
2023/09/01 01:27:25;;;;;;;6.40;3.40;;;;;;;;;;778890;180;933960;-63
2023/09/01 01:29:51;;;;;;;6.47;3.35;;;;;;;;;;773726;180;921404;-63
2023/09/01 01:32:16;;;;;;;7.00;3.40;;;;;;;;;;770029;180;923687;-62
2023/09/01 01:34:42;;;;;;;9.23;4.07;;;;;;;;;;779202;180;918829;-63
2023/09/01 01:37:08;;;;;;;4.93;3.43;;;;;;;;;;764539;181;919307;-63
2023/09/01 01:39:35;;;;;;;7.60;3.37;;;;;;;;;;759943;182;918281;-58
2023/09/01 01:42:00;;;;;;;8.38;3.08;;;;;;;;;;778178;181;919465;-58
2023/09/01 01:44:26;;;;;;;8.57;5.03;;;;;;;;;;772963;177;919574;-62
2023/09/01 01:46:52;;;;;;;4.32;3.10;;;;;;;;;;774714;181;919237;-61
2023/09/01 01:49:17;;;;;;;5.23;3.53;;;;;;;;;;769350;178;922803;-59
2023/09/01 01:51:43;;;;;;;5.10;3.17;;;;;;;;;;775967;181;918988;-59
2023/09/01 01:54:09;;;;;;;4.90;3.10;;;;;;;;;;774893;180;919193;-64
2023/09/01 01:56:35;;;;;;;5.68;3.22;;;;;;;;;;773641;180;918561;-63
2023/09/01 01:59:04;;;;;;;4.73;3.13;;;;;;;;;;778030;181;919434;-59
2023/09/01 02:01:27;;;;;;;7.10;3.20;;;;;;;;;;775364;177;921613;-59
2023/09/01 02:03:52;;;;;;;5.50;3.10;;;;;;;;;;768723;180;919052;-59
2023/09/01 02:06:18;;;;;;;5.80;3.57;;;;;;;;;;778117;179;919181;-64
2023/09/01 02:08:44;;;;;;;6.87;3.60;;;;;;;;;;772978;180;919644;-58
2023/09/01 02:11:10;;;;;;;5.30;2.97;;;;;;;;;;770940;180;924407;-59
2023/09/01 02:13:36;;;;;;;5.95;3.75;;;;;;;;;;778318;180;918553;-63
2023/09/01 02:16:05;;;;;;;7.60;3.10;;;;;;;;;;777100;180;883469;-64
2023/09/01 02:18:28;;;;;;;7.33;3.80;;;;;;;;;;774803;177;919710;-59
2023/09/01 02:20:54;;;;;;;6.40;3.50;;;;;;;;;;774617;180;918766;-59
2023/09/01 02:23:20;;;;;;;7.07;3.23;;;;;;;;;;779847;177;853026;-59
2023/09/01 02:25:45;;;;;;;7.57;3.47;;;;;;;;;;773602;177;919235;-63
2023/09/01 02:28:11;;;;;;;7.70;3.20;;;;;;;;;;772200;180;915327;-58
2023/09/01 02:30:37;;;;;;;8.03;2.80;;;;;;;;;;779997;177;922496;-65
2023/09/01 02:33:03;;;;;;;3.80;2.83;;;;;;;;;;777600;179;918778;-65
2023/09/01 02:35:29;;;;;;;7.17;3.00;;;;;;;;;;771355;180;919351;-60
2023/09/01 02:37:55;;;;;;;7.27;3.27;;;;;;;;;;777389;181;919013;-58
2023/09/01 02:40:24;;;;;;;3.47;2.63;;;;;;;;;;768471;178;921373;-65
2023/09/01 02:42:47;;;;;;;5.97;2.70;;;;;;;;;;774121;177;918645;-59
2023/09/01 02:45:13;;;;;;;7.90;2.90;;;;;;;;;;774835;180;923834;-63
2023/09/01 02:47:40;;;;;;;4.87;2.73;;;;;;;;;;777827;180;919016;-58
2023/09/01 02:50:04;;;;;;;7.20;3.03;;;;;;;;;;772972;180;918399;-59
2023/09/01 02:52:30;;;;;;;6.00;2.75;;;;;;;;;;770818;177;917476;-59
2023/09/01 02:54:56;;;;;;;3.73;2.60;;;;;;;;;;767291;180;920678;-59
2023/09/01 02:57:22;;;;;;;3.97;3.00;;;;;;;;;;772451;180;919306;-64
2023/09/01 02:59:48;;;;;;;6.20;2.87;;;;;;;;;;773545;180;920829;-64
2023/09/01 03:02:14;;;;;;;8.30;3.27;;;;;;;;;;782238;180;820493;-59
2023/09/01 03:04:41;;;;;;;6.37;2.70;;;;;;;;;;773315;180;909306;-64
2023/09/01 03:07:05;;;;;;;6.37;2.72;;;;;;;;;;775679;180;912699;-65
2023/09/01 03:09:32;;;;;;;7.93;2.22;;;;;;;;;;778334;180;913615;-60
2023/09/01 03:11:57;;;;;;;5.43;2.30;;;;;;;;;;781539;180;915227;-65
2023/09/01 03:14:24;;;;;;;5.93;3.00;;;;;;;;;;773010;179;914049;-65
2023/09/01 03:16:49;;;;;;;4.50;3.03;;;;;;;;;;770133;178;915945;-64
2023/09/01 03:19:15;;;;;;;6.50;3.40;;;;;;;;;;777807;180;915260;-65
2023/09/01 03:21:41;;;;;;;4.10;2.40;;;;;;;;;;763674;181;921340;-59
2023/09/01 03:24:07;;;;;;;11.30;3.87;;;;;;;;;;773538;177;919363;-62
2023/09/01 03:26:33;;;;;;;4.20;2.35;;;;;;;;;;779041;179;915497;-60
2023/09/01 03:28:58;;;;;;;5.27;3.40;;;;;;;;;;777042;177;915847;-60
2023/09/01 03:31:24;;;;;;;3.50;2.63;;;;;;;;;;768565;181;922227;-60
2023/09/01 03:33:50;;;;;;;5.67;2.90;;;;;;;;;;781444;177;817338;-60
2023/09/01 03:36:16;;;;;;;5.50;3.60;;;;;;;;;;772743;181;919753;-60
2023/09/01 03:38:42;;;;;;;5.90;3.57;;;;;;;;;;770572;179;921620;-64
2023/09/01 03:41:08;;;;;;;8.07;3.92;;;;;;;;;;772677;180;920421;-65
2023/09/01 03:43:33;;;;;;;11.07;4.27;;;;;;;;;;777913;180;916896;-60
2023/09/01 03:45:59;;;;;;;7.27;3.80;;;;;;;;;;771519;180;917900;-60
2023/09/01 03:48:25;;;;;;;7.50;4.00;;;;;;;;;;772810;177;917790;-65
2023/09/01 03:50:57;;;;;;;6.33;4.40;;;;;;;;;;772755;180;846607;-60
2023/09/01 03:53:23;;;;;;;10.07;4.00;;;;;;;;;;773212;180;919276;-66
2023/09/01 03:55:49;;;;;;;7.77;4.37;;;;;;;;;;763270;181;919288;-65
2023/09/01 03:58:14;;;;;;;8.40;4.50;;;;;;;;;;766621;178;919970;-65
2023/09/01 04:00:40;;;;;;;5.90;4.50;;;;;;;;;;775427;180;918872;-65
2023/09/01 04:03:06;;;;;;;7.60;4.27;;;;;;;;;;775354;179;852598;-59
2023/09/01 04:05:32;;;;;;;9.93;4.47;;;;;;;;;;771643;181;814475;-60
2023/09/01 04:07:58;;;;;;;10.40;4.60;;;;;;;;;;777173;181;918637;-61
2023/09/01 04:10:24;;;;;;;8.30;3.90;;;;;;;;;;774432;180;918878;-66
2023/09/01 04:12:49;;;;;;;6.33;3.83;;;;;;;;;;774624;179;919332;-65
2023/09/01 04:15:15;;;;;;;7.40;4.03;;;;;;;;;;779407;179;918293;-60
2023/09/01 04:17:41;;;;;;;5.73;3.20;;;;;;;;;;771062;177;919048;-65
2023/09/01 04:20:10;;;;;;;7.30;4.57;;;;;;;;;;776895;177;918799;-66
2023/09/01 04:22:33;;;;;;;6.90;4.27;;;;;;;;;;779042;180;919610;-60
2023/09/01 04:24:59;;;;;;;12.33;4.80;;;;;;;;;;772583;180;920888;-61
2023/09/01 04:27:25;;;;;;;6.77;3.80;;;;;;;;;;772118;181;920121;-60
2023/09/01 04:29:51;;;;;;;10.57;4.10;;;;;;;;;;773897;181;923152;-60
2023/09/01 04:32:16;;;;;;;6.57;4.45;;;;;;;;;;773581;181;919098;-67
2023/09/01 04:34:42;;;;;;;6.40;3.40;;;;;;;;;;773466;181;819627;-60
2023/09/01 04:37:08;;;;;;;5.87;3.57;;;;;;;;;;773835;179;919173;-61
2023/09/01 04:39:34;;;;;;;4.80;3.50;;;;;;;;;;777119;180;915195;-65
2023/09/01 04:42:00;;;;;;;9.80;4.87;;;;;;;;;;770111;181;919596;-61
2023/09/01 04:44:26;;;;;;;11.47;5.30;;;;;;;;;;766922;180;812425;-60
2023/09/01 04:46:51;;;;;;;4.95;3.40;;;;;;;;;;767994;180;915349;-66
2023/09/01 04:49:17;;;;;;;4.80;3.60;;;;;;;;;;773296;178;913256;-66
2023/09/01 04:51:43;;;;;;;6.25;3.60;;;;;;;;;;773226;177;925656;-59
2023/09/01 04:54:09;;;;;;;5.80;3.90;;;;;;;;;;775678;178;912711;-61
2023/09/01 04:56:35;;;;;;;7.90;3.50;;;;;;;;;;770808;180;915121;-60
2023/09/01 04:59:01;;;;;;;8.87;3.90;;;;;;;;;;763074;181;933082;-66
2023/09/01 05:01:26;;;;;;;6.30;4.00;;;;;;;;;;765780;178;915774;-61
2023/09/01 05:03:52;;;;;;;10.03;3.73;;;;;;;;;;780809;180;917674;-60
2023/09/01 05:06:18;;;;;;;5.70;4.20;;;;;;;;;;775158;180;916753;-65
2023/09/01 05:08:44;;;;;;;7.07;4.30;;;;;;;;;;775871;177;914042;-60
2023/09/01 05:11:10;;;;;;;7.33;4.13;;;;;;;;;;781537;180;816709;-65
2023/09/01 05:13:37;;;;;;;11.53;4.20;;;;;;;;;;776465;180;917923;-65
2023/09/01 05:16:02;;;;;;;5.07;3.73;;;;;;;;;;774059;180;908492;-65
2023/09/01 05:18:27;;;;;;;4.50;3.43;;;;;;;;;;770314;178;919245;-66
2023/09/01 05:20:53;;;;;;;6.03;4.03;;;;;;;;;;774409;177;900046;-65
2023/09/01 05:23:19;;;;;;;10.93;3.77;;;;;;;;;;775734;180;918716;-61
2023/09/01 05:25:45;;;;;;;7.03;4.60;;;;;;;;;;772178;180;918468;-65
2023/09/01 05:28:11;;;;;;;8.70;4.30;;;;;;;;;;770071;180;996819;-67
2023/09/01 05:30:37;;;;;;;5.53;3.47;;;;;;;;;;770602;178;917156;-60
2023/09/01 05:33:03;;;;;;;8.93;3.77;;;;;;;;;;770364;180;919385;-60
2023/09/01 05:35:29;;;;;;;9.10;4.33;;;;;;;;;;779357;180;828694;-61
2023/09/01 05:37:55;;;;;;;5.83;3.27;;;;;;;;;;768474;180;817121;-60
2023/09/01 05:40:21;;;;;;;4.97;3.00;;;;;;;;;;765925;180;925770;-65
2023/09/01 05:42:47;;;;;;;10.80;4.20;;;;;;;;;;773232;180;918725;-67
2023/09/01 05:45:13;;;;;;;8.80;4.23;;;;;;;;;;771402;177;920402;-61
2023/09/01 05:47:38;;;;;;;7.77;4.30;;;;;;;;;;771394;178;918672;-65
2023/09/01 05:50:05;;;;;;;7.53;3.50;;;;;;;;;;775096;177;916748;-60
2023/09/01 05:52:30;;;;;;;6.27;3.47;;;;;;;;;;774042;178;917459;-66
2023/09/01 05:54:56;;;;;;;5.90;3.80;;;;;;;;;;769807;179;920337;-66
2023/09/01 05:57:22;;;;;;;4.28;3.12;;;;;;;;;;771762;180;925572;-60
2023/09/01 05:59:48;;;;;;;6.40;3.77;;;;;;;;;;775167;181;918413;-59
2023/09/01 06:02:14;;;;;;;25.75;5.15;;;;;;;;;;773495;179;917464;-60
2023/09/01 06:04:40;;;;;;;7.67;3.77;;;;;;;;;;776506;180;818691;-65
2023/09/01 06:07:08;;;;;;;6.13;4.20;;;;;;;;;;779478;180;918401;-60
2023/09/01 06:09:32;;;;;;;9.63;3.70;;;;;;;;;;776060;180;919296;-60
2023/09/01 06:11:57;;;;;;;5.00;3.40;;;;;;;;;;774722;180;917184;-59
2023/09/01 06:14:23;;;;;;;11.03;4.80;;;;;;;;;;781380;180;855198;-66
2023/09/01 06:16:50;;;;;;;11.63;6.17;;;;;;;;;;774386;180;920917;-61
2023/09/01 06:19:15;;;;;;;8.47;5.70;;;;;;;;;;768945;179;969446;-60
2023/09/01 06:21:41;;;;;;;5.73;4.10;;;;;;;;;;771088;180;947077;-60
2023/09/01 06:24:06;;;;;;;10.73;4.27;;;;;;;;;;772253;180;915293;-60
2023/09/01 06:26:32;;;;;;;6.63;4.20;;;;;;;;;;765242;182;935683;-60
2023/09/01 06:28:58;;;;;;;6.10;4.20;;;;;;;;;;774832;180;919202;-61
2023/09/01 06:31:24;;;;;;;4.80;4.10;;;;;;;;;;777192;180;915479;-61
2023/09/01 06:33:50;;;;;;;8.80;3.87;;;;;;;;;;772447;180;920250;-65
2023/09/01 06:36:18;;;;;;;4.97;3.60;;;;;;;;;;775256;177;918502;-65
2023/09/01 06:38:42;;;;;;;7.23;4.10;;;;;;;;;;774295;178;908862;-66
2023/09/01 06:41:07;;;;;;;25.93;4.97;;;;;;;;;;774409;180;915792;-60
2023/09/01 06:43:33;;;;;;;5.07;3.60;;;;;;;;;;772893;180;919282;-67
2023/09/01 06:45:59;;;;;;;5.40;4.07;;;;;;;;;;772476;179;921955;-60
2023/09/01 06:48:25;;;;;;;5.80;4.07;;;;;;;;;;773399;178;883919;-65
2023/09/01 06:50:51;;;;;;;7.13;3.70;;;;;;;;;;772403;180;935798;-60
2023/09/01 06:53:17;;;;;;;8.50;3.90;;;;;;;;;;775333;178;915547;-61
2023/09/01 06:55:42;;;;;;;5.47;3.73;;;;;;;;;;777662;180;919071;-66
2023/09/01 06:58:08;;;;;;;5.70;4.37;;;;;;;;;;769809;178;918802;-65
2023/09/01 07:00:34;;;;;;;5.28;3.72;;;;;;;;;;759214;181;918278;-66
2023/09/01 07:03:00;;;;;;;6.30;3.97;;;;;;;;;;776657;180;920955;-65
2023/09/01 07:05:26;;;;;;;7.77;4.30;;;;;;;;;;768688;180;920193;-59
2023/09/01 07:07:52;;;;;;;5.70;3.83;;;;;;;;;;766405;180;849346;-66
2023/09/01 07:10:17;;;;;;;8.07;4.13;;;;;;;;;;777089;179;919558;-59
2023/09/01 07:12:43;;;;;;;7.47;4.57;;;;;;;;;;770934;180;913363;-66
2023/09/01 07:15:10;;;;;;;5.03;3.63;;;;;;;;;;764836;178;916076;-64
2023/09/01 07:17:35;;;;;;;6.00;4.00;;;;;;;;;;773987;181;915761;-61
2023/09/01 07:20:03;;;;;;;7.03;3.93;;;;;;;;;;780331;180;920630;-66
2023/09/01 07:22:27;;;;;;;9.13;4.47;;;;;;;;;;773896;180;1021718;-61
2023/09/01 07:24:53;;;;;;;7.47;4.10;;;;;;;;;;764744;181;816495;-65
2023/09/01 07:27:19;;;;;;;6.63;3.57;;;;;;;;;;778612;180;918068;-66
2023/09/01 07:29:48;;;;;;;8.60;4.73;;;;;;;;;;776096;180;917541;-60
2023/09/01 07:32:10;;;;;;;5.03;3.80;;;;;;;;;;768439;181;916279;-60
2023/09/01 07:34:37;;;;;;;7.40;4.67;;;;;;;;;;776723;180;919504;-66
2023/09/01 07:37:03;;;;;;;5.63;3.77;;;;;;;;;;772769;178;918736;-64
2023/09/01 07:39:28;;;;;;;7.57;4.50;;;;;;;;;;772388;178;919117;-60
2023/09/01 07:41:54;;;;;;;5.57;3.80;;;;;;;;;;775298;181;919599;-64
2023/09/01 07:44:20;;;;;;;7.47;4.10;;;;;;;;;;773753;180;922368;-65
2023/09/01 07:46:46;;;;;;;7.33;3.90;;;;;;;;;;773849;177;918962;-66
2023/09/01 07:49:12;;;;;;;5.50;4.00;;;;;;;;;;774184;177;820650;-61
2023/09/01 07:51:38;;;;;;;5.63;3.90;;;;;;;;;;776591;181;917452;-65
2023/09/01 07:54:04;;;;;;;7.50;4.40;;;;;;;;;;775525;179;817876;-65
2023/09/01 07:56:30;;;;;;;9.53;4.27;;;;;;;;;;774907;180;917533;-65
2023/09/01 07:58:56;;;;;;;6.03;3.83;;;;;;;;;;778311;177;917063;-58
2023/09/01 08:01:21;;;;;;;6.10;4.07;;;;;;;;;;767187;181;915396;-65
2023/09/01 08:03:47;;;;;;;7.00;4.10;;;;;;;;;;767432;181;919530;-65
2023/09/01 08:06:13;;;;;;;6.87;3.27;;;;;;;;;;771197;180;919087;-64
2023/09/01 08:08:39;;;;;;;5.20;3.87;;;;;;;;;;772536;180;919507;-65
2023/09/01 08:11:05;;;;;;;14.90;4.10;;;;;;;;;;771215;178;914780;-59
2023/09/01 08:13:31;;;;;;;6.40;3.07;;;;;;;;;;773246;180;916774;-60
2023/09/01 08:15:57;;;;;;;4.87;3.40;;;;;;;;;;779852;181;919304;-61
2023/09/01 08:18:22;;;;;;;10.17;3.07;;;;;;;;;;779879;180;627137;-64
2023/09/01 08:20:48;;;;;;;7.10;3.20;;;;;;;;;;776032;179;622037;-65
2023/09/01 08:23:14;;;;;;;8.53;3.47;;;;;;;;;;771036;181;626833;-59
2023/09/01 08:25:40;;;;;;;6.77;3.60;;;;;;;;;;776265;178;641746;-64
2023/09/01 08:28:07;;;;;;;9.30;3.60;;;;;;;;;;782446;180;620224;-60
2023/09/01 08:30:32;;;;;;;5.40;2.80;;;;;;;;;;780955;179;639244;-58
2023/09/01 08:32:57;;;;;;;6.47;3.53;;;;;;;;;;772635;180;919074;-59
2023/09/01 08:35:23;;;;;;;5.63;3.30;;;;;;;;;;774400;180;917917;-59
2023/09/01 08:37:49;;;;;;;4.33;2.77;;;;;;;;;;772209;178;921667;-59
2023/09/01 08:40:15;;;;;;;6.83;3.37;;;;;;;;;;775315;180;919035;-58
2023/09/01 08:42:44;;;;;;;7.80;3.37;;;;;;;;;;770859;181;920556;-59
2023/09/01 08:45:10;;;;;;;4.70;2.93;;;;;;;;;;769947;180;1020536;-66
2023/09/01 08:47:35;;;;;;;5.50;3.00;;;;;;;;;;775934;180;917594;-65
2023/09/01 08:50:01;;;;;;;9.50;3.53;;;;;;;;;;775342;180;918033;-60
2023/09/01 08:52:27;;;;;;;6.50;3.20;;;;;;;;;;772292;180;919614;-66
2023/09/01 08:54:53;;;;;;;5.97;2.83;;;;;;;;;;778363;180;816026;-66
2023/09/01 08:57:19;;;;;;;7.23;3.93;;;;;;;;;;774697;177;913052;-66
2023/09/01 08:59:44;;;;;;;5.67;3.40;;;;;;;;;;775246;177;919134;-59
2023/09/01 09:02:10;;;;;;;7.23;3.50;;;;;;;;;;769373;181;918744;-59
2023/09/01 09:04:36;;;;;;;7.53;4.00;;;;;;;;;;772395;181;918554;-60
2023/09/01 09:07:08;;;;;;;6.27;3.30;;;;;;;;;;772018;180;919105;-59
2023/09/01 09:09:34;;;;;;;5.03;3.63;;;;;;;;;;771426;179;919518;-66
2023/09/01 09:11:59;;;;;;;6.30;3.43;;;;;;;;;;775831;177;920846;-57
2023/09/01 09:14:27;;;;;;;5.20;3.13;;;;;;;;;;770935;179;918746;-64
2023/09/01 09:16:52;;;;;;;4.73;2.60;;;;;;;;;;773411;177;966047;-66
2023/09/01 09:19:19;;;;;;;6.03;3.12;;;;;;;;;;766165;183;919214;-64
2023/09/01 09:21:44;;;;;;;7.93;2.77;;;;;;;;;;773430;182;818849;-64
2023/09/01 09:24:10;;;;;;;8.40;2.57;;;;;;;;;;771458;181;821078;-59
2023/09/01 09:26:36;;;;;;;6.20;3.30;;;;;;;;;;772167;180;923429;-58
2023/09/01 09:29:06;;;;;;;4.83;2.83;;;;;;;;;;772252;181;919660;-59
2023/09/01 09:31:36;;;;;;;8.20;3.70;;;;;;;;;;769907;181;918593;-64
2023/09/01 09:33:59;;;;;;;9.00;3.57;;;;;;;;;;773105;181;919167;-64
2023/09/01 09:36:36;;;;;;;5.00;2.30;;;;;;;;;;775743;180;919784;-65
2023/09/01 09:38:59;;;;;;;7.80;3.27;;;;;;;;;;775438;180;919588;-64
2023/09/01 09:41:25;;;;;;;6.83;2.47;;;;;;;;;;773323;181;936857;-58
2023/09/01 09:43:51;;;;;;;4.20;2.83;;;;;;;;;;776183;177;919680;-63
2023/09/01 09:46:17;;;;;;;5.20;3.20;;;;;;;;;;780450;180;917023;-64
2023/09/01 09:48:42;;;;;;;9.13;3.27;;;;;;;;;;770636;178;918909;-64
2023/09/01 09:51:08;;;;;;;9.00;3.30;;;;;;;;;;763244;181;843207;-64
2023/09/01 09:53:35;;;;;;;5.20;3.30;;;;;;;;;;775699;180;838415;-65
2023/09/01 09:56:00;;;;;;;7.20;2.60;;;;;;;;;;778736;180;919397;-58
2023/09/01 09:58:27;;;;;;;3.50;2.30;;;;;;;;;;769890;178;939799;-65
2023/09/01 10:00:54;;;;;;;4.87;3.03;;;;;;;;;;770616;180;891704;-65
2023/09/01 10:03:23;;;;;;;4.00;2.30;;;;;;;;;;780758;180;920391;-59
2023/09/01 10:05:47;;;;;;;7.37;2.70;;;;;;;;;;773434;180;920840;-59
2023/09/01 10:08:14;;;;;;;6.27;2.50;;;;;;;;;;773944;178;917784;-65
2023/09/01 10:10:41;;;;;;;5.73;2.70;;;;;;;;;;780174;177;910873;-66
2023/09/01 10:13:06;;;;;;;5.37;2.70;;;;;;;;;;775371;180;818932;-65
2023/09/01 10:15:32;;;;;;;5.23;3.23;;;;;;;;;;773808;181;816665;-57
2023/09/01 10:18:01;;;;;;;9.70;2.93;;;;;;;;;;771629;180;920766;-65
2023/09/01 10:20:26;;;;;;;4.67;2.57;;;;;;;;;;780008;180;885670;-66
2023/09/01 10:22:52;;;;;;;4.40;3.00;;;;;;;;;;774076;181;810239;-67
2023/09/01 10:25:18;;;;;;;7.10;2.78;;;;;;;;;;776134;177;773306;-64
2023/09/01 10:27:49;;;;;;;6.23;3.20;;;;;;;;;;778525;181;919306;-59
2023/09/01 10:30:21;;;;;;;6.53;3.20;;;;;;;;;;774297;177;845756;-59
2023/09/01 10:32:47;;;;;;;5.83;3.53;;;;;;;;;;769220;181;916722;-66
2023/09/01 10:35:13;;;;;;;4.40;2.90;;;;;;;;;;773441;180;916950;-58
2023/09/01 10:37:39;;;;;;;6.00;3.17;;;;;;;;;;778862;180;924467;-65
2023/09/01 10:40:05;;;;;;;5.27;2.70;;;;;;;;;;762911;180;922521;-64
2023/09/01 10:42:37;;;;;;;8.30;3.15;;;;;;;;;;771514;180;918417;-65
2023/09/01 10:45:07;;;;;;;6.47;3.20;;;;;;;;;;759472;183;822564;-65
2023/09/01 10:47:52;;;;;;;4.10;2.67;;;;;;;;;;772835;177;918893;-65
2023/09/01 10:50:14;;;;;;;5.37;2.50;;;;;;;;;;779143;178;817696;-57
2023/09/01 10:52:42;;;;;;;7.53;2.60;;;;;;;;;;775476;180;920028;-64
2023/09/01 10:55:06;;;;;;;7.20;2.60;;;;;;;;;;774344;181;919167;-65
2023/09/01 10:57:37;;;;;;;6.43;3.27;;;;;;;;;;779127;180;918069;-58
2023/09/01 11:00:10;;;;;;;8.43;3.13;;;;;;;;;;776931;181;919501;-65
2023/09/01 11:02:35;;;;;;;4.83;2.80;;;;;;;;;;774612;178;877507;-60
2023/09/01 11:05:01;;;;;;;9.10;3.70;;;;;;;;;;776190;177;920519;-66
2023/09/01 11:07:26;;;;;;;7.05;3.37;;;;;;;;;;779430;177;909479;-59
2023/09/01 11:09:55;;;;;;;6.23;3.40;;;;;;;;;;769370;177;944811;-65
2023/09/01 11:12:19;;;;;;;5.28;3.10;;;;;;;;;;760540;181;918627;-58
2023/09/01 11:14:51;;;;;;;6.00;3.13;;;;;;;;;;769363;180;919364;-64
2023/09/01 11:17:18;;;;;;;7.30;3.90;;;;;;;;;;774633;179;918255;-65
2023/09/01 11:19:46;;;;;;;4.87;3.17;;;;;;;;;;774070;180;920013;-59
2023/09/01 11:22:12;;;;;;;6.67;3.50;;;;;;;;;;771586;178;920694;-59
2023/09/01 11:24:39;;;;;;;8.43;3.60;;;;;;;;;;776506;180;916917;-60
2023/09/01 11:27:05;;;;;;;7.60;3.63;;;;;;;;;;770464;179;867869;-64
2023/09/01 11:29:30;;;;;;;9.47;3.80;;;;;;;;;;765410;181;858680;-65
2023/09/01 11:31:56;;;;;;;6.17;3.20;;;;;;;;;;773058;180;947877;-58
2023/09/01 11:34:22;;;;;;;4.60;2.67;;;;;;;;;;772791;181;918708;-59
2023/09/01 11:36:49;;;;;;;5.27;2.90;;;;;;;;;;768902;181;918791;-58
2023/09/01 11:39:14;;;;;;;4.10;2.90;;;;;;;;;;762461;177;911495;-66
2023/09/01 11:41:40;;;;;;;3.73;2.47;;;;;;;;;;778928;181;922492;-63
2023/09/01 11:44:06;;;;;;;8.23;2.97;;;;;;;;;;773000;177;919536;-67
2023/09/01 11:46:32;;;;;;;4.35;2.72;;;;;;;;;;772990;180;921481;-59
2023/09/01 11:48:59;;;;;;;6.20;2.63;;;;;;;;;;777039;177;815441;-66
2023/09/01 11:51:30;;;;;;;6.40;2.93;;;;;;;;;;769812;180;816126;-58
2023/09/01 11:53:58;;;;;;;6.93;3.10;;;;;;;;;;768760;179;919160;-59
2023/09/01 11:56:24;;;;;;;4.40;2.53;;;;;;;;;;760787;181;922184;-59
2023/09/01 11:58:50;;;;;;;7.70;4.00;;;;;;;;;;773020;179;919072;-58
2023/09/01 12:01:15;;;;;;;5.83;2.63;;;;;;;;;;774035;179;921497;-65
2023/09/01 12:03:46;;;;;;;3.77;2.57;;;;;;;;;;775248;177;844019;-65
2023/09/01 12:06:15;;;;;;;4.50;2.70;;;;;;;;;;773156;180;917758;-65
2023/09/01 12:08:41;;;;;;;4.00;2.37;;;;;;;;;;779903;178;919207;-58
2023/09/01 12:11:07;;;;;;;5.23;2.20;;;;;;;;;;759166;181;918989;-59
2023/09/01 12:13:33;;;;;;;6.20;2.53;;;;;;;;;;770620;181;919394;-65
2023/09/01 12:15:59;;;;;;;4.07;2.50;;;;;;;;;;782449;180;629434;-66
2023/09/01 12:18:26;;;;;;;3.70;2.40;;;;;;;;;;770232;180;918695;-65
2023/09/01 12:20:52;;;;;;;7.00;2.97;;;;;;;;;;774424;181;816918;-65
2023/09/01 12:23:24;;;;;;;4.50;2.63;;;;;;;;;;773966;180;918755;-59
2023/09/01 12:25:51;;;;;;;4.10;2.60;;;;;;;;;;771411;181;920067;-65
2023/09/01 12:28:17;;;;;;;7.00;2.83;;;;;;;;;;766330;180;919475;-66
2023/09/01 12:30:43;;;;;;;7.03;3.37;;;;;;;;;;774663;179;917719;-59
2023/09/01 12:33:09;;;;;;;6.07;3.40;;;;;;;;;;779461;177;922356;-65
2023/09/01 12:35:35;;;;;;;5.03;2.80;;;;;;;;;;774111;181;819646;-65
2023/09/01 12:38:01;;;;;;;5.90;2.80;;;;;;;;;;772681;180;819286;-67
2023/09/01 12:40:27;;;;;;;3.50;2.40;;;;;;;;;;774452;180;921176;-59
2023/09/01 12:42:53;;;;;;;4.77;3.00;;;;;;;;;;777126;180;895168;-57
2023/09/01 12:45:19;;;;;;;4.87;2.50;;;;;;;;;;774510;177;918579;-58
2023/09/01 12:47:45;;;;;;;5.27;2.13;;;;;;;;;;773716;180;917418;-64
2023/09/01 12:50:11;;;;;;;5.53;2.80;;;;;;;;;;776457;179;920524;-65
2023/09/01 12:52:37;;;;;;;3.57;2.23;;;;;;;;;;769975;180;918085;-65
2023/09/01 12:55:02;;;;;;;4.27;2.47;;;;;;;;;;757192;182;860668;-59
2023/09/01 12:57:29;;;;;;;4.30;2.77;;;;;;;;;;778618;180;918755;-59
2023/09/01 12:59:55;;;;;;;4.33;2.90;;;;;;;;;;774791;181;919447;-66
2023/09/01 13:02:23;;;;;;;4.67;2.97;;;;;;;;;;772234;180;817350;-65
2023/09/01 13:04:48;;;;;;;4.87;2.50;;;;;;;;;;771222;181;918266;-64
2023/09/01 13:07:16;;;;;;;5.23;2.50;;;;;;;;;;774022;181;844138;-65
2023/09/01 13:09:41;;;;;;;3.93;2.50;;;;;;;;;;763378;182;866376;-66
2023/09/01 13:12:06;;;;;;;6.20;2.50;;;;;;;;;;775982;179;919487;-59
2023/09/01 13:14:32;;;;;;;6.50;2.80;;;;;;;;;;777076;180;915655;-63
2023/09/01 13:16:58;;;;;;;5.10;2.20;;;;;;;;;;772116;177;938101;-65
2023/09/01 13:19:23;;;;;;;3.60;2.50;;;;;;;;;;773674;181;916541;-66
2023/09/01 13:21:49;;;;;;;3.90;2.07;;;;;;;;;;778004;178;1011597;-65
2023/09/01 13:24:15;;;;;;;4.27;2.13;;;;;;;;;;772553;179;807317;-59
2023/09/01 13:26:41;;;;;;;5.53;2.62;;;;;;;;;;774295;180;920114;-58
2023/09/01 13:29:07;;;;;;;5.60;2.43;;;;;;;;;;774002;178;815295;-63
2023/09/01 13:31:33;;;;;;;7.10;2.70;;;;;;;;;;771252;181;710925;-63
2023/09/01 13:33:58;;;;;;;3.80;2.47;;;;;;;;;;773786;179;809367;-57
2023/09/01 13:36:25;;;;;;;4.90;2.33;;;;;;;;;;772527;178;916247;-58
2023/09/01 13:38:50;;;;;;;4.53;2.60;;;;;;;;;;779557;180;911164;-58
2023/09/01 13:41:16;;;;;;;4.80;3.10;;;;;;;;;;773800;181;922691;-64
2023/09/01 13:43:42;;;;;;;3.12;1.95;;;;;;;;;;770662;180;1327522;-63
2023/09/01 13:46:13;;;;;;;4.73;2.50;;;;;;;;;;778004;180;909841;-64
2023/09/01 13:48:39;;;;;;;4.60;2.33;;;;;;;;;;779383;180;920893;-58
2023/09/01 13:51:05;;;;;;;3.80;2.70;;;;;;;;;;771945;180;920142;-57
2023/09/01 13:53:31;;;;;;;4.57;2.57;;;;;;;;;;773062;180;919726;-63
2023/09/01 13:55:57;;;;;;;5.47;2.47;;;;;;;;;;776384;180;920144;-58
2023/09/01 13:58:23;;;;;;;4.80;2.40;;;;;;;;;;773307;178;853700;-57
2023/09/01 14:00:49;;;;;;;4.60;2.40;;;;;;;;;;774440;180;638687;-63
2023/09/01 14:03:15;;;;;;;3.90;2.53;;;;;;;;;;775597;180;926585;-58
2023/09/01 14:05:40;;;;;;;6.00;2.87;;;;;;;;;;763409;181;917840;-57
2023/09/01 14:08:06;;;;;;;3.50;2.20;;;;;;;;;;773567;177;916649;-63
2023/09/01 14:10:32;;;;;;;5.90;2.90;;;;;;;;;;775759;177;700148;-56
2023/09/01 14:12:58;;;;;;;3.30;2.07;;;;;;;;;;765684;180;916796;-64
2023/09/01 14:15:24;;;;;;;3.80;2.80;;;;;;;;;;770233;179;921765;-64
2023/09/01 14:17:49;;;;;;;6.27;2.60;;;;;;;;;;773753;180;919410;-63
2023/09/01 14:20:15;;;;;;;5.13;2.50;;;;;;;;;;775281;180;917627;-58
2023/09/01 14:22:41;;;;;;;4.30;2.60;;;;;;;;;;774086;179;919061;-58